Little River, SC

2:50 PM EDT on July 26, 2016 (GMT -0400)
Grand Strand | | Change Station
Active Advisory: Heat Advisory

Elev 33 ft 33.81 °N, 78.72 °W | Updated 57 minutes ago

Clear
Clear
88 °F
Feels Like 101 °F
N
13
Wind Variable Wind from South

Today
High -- | Low -- °F
--% Chance of Precip.
Yesterday
High -- | Low -- °F
Precip. -- in
Pressure 30.03 in
Visibility 10.0 miles
Clouds Clear
Heat Index 101 °F
Dew Point 78 °F
Humidity 72%
Rainfall 0.00 in
Snow Depth Not available.
6:22 AM 8:19 PM
Waning Gibbous, 52% visible
METAR KCRE 261753Z 18011KT 10SM CLR 31/26 A3003 RMK AO1 SLP168 T03110256 10317 20272 58009
Pressure 30.03 in
Visibility 10.0 miles
Clouds Clear
Heat Index 101 °F
Dew Point 78 °F
Humidity 72%
Rainfall 0.00 in
Snow Depth Not available.
6:22 AM 8:19 PM
Waning Gibbous, 52% visible
METAR KCRE 261753Z 18011KT 10SM CLR 31/26 A3003 RMK AO1 SLP168 T03110256 10317 20272 58009

10-Day Weather Forecast

Almanac

Astronomy

Jul. 26, 2016 Rise Set
Actual Time
Civil Twilight
Nautical Twilight
Astronomical Twilight
Moon
Length of Visible Light
Length of Day
Tomorrow will be .
, % of the Moon is Illuminated

Today's Extremes

State Highs State Lows

Community

WunderPhotos

Upload Photos

1,927,653 photos uploaded!

WunderBlog® & News

Nearby

Air Quality

  Air Quality AQ Index Pollutant
Not available.

Snow Depth

Station Depth Elevation

Earthquake Activity

City Distance Mag. Time & Date
Minimum magnitude displayed is 2.5.

Coastal Water Temperatures

Place Temperature

Stations

Nearby Weather Stations

Station Location Temp. Windchill Dew Point Humidity Wind Precip. Elev Updated Type
                   

Watches & Warnings

Heat Advisory
Issued: 11:31 AM EDT Jul. 26, 2016 – National Weather Service

... Heat advisory remains in effect until 7 PM EDT this evening...

* heat index values... up to 105 due to temperatures in the lower
90s... and dewpoints in the lower 70s.

* Timing... the highest sustained heat index values will occur in
the mid to late afternoon hours.

* Impacts... the combination of hot temperatures and high
humidity will create a situation in which heat illnesses are
possible. If you suspect someone having a heat stroke... call
911 immediately.

Precautionary/preparedness actions...

To reduce the risk of heat illness during outdoor work... the
occupational safety and health administration recommends
scheduling frequent rest breaks in shaded or air conditioned
environments... and to drink plenty of non-alcoholic fluids.

Never leave children or pets unattended in a closed up vehicle
during the day. In just 15 minutes... temperatures inside the
vehicle could easily surpass 140 degrees.

Outdoor livestock and pets will also need plenty of shade... a
well ventilated environment... and plenty of accessible drinking
water.



5